createdAt,value
2023-03-07T00:01:32.672Z,97545.16
2023-03-07T00:04:02.343Z,97544.16
2023-03-07T00:06:32.922Z,97544.16
2023-03-07T00:09:03.761Z,97542.09
2023-03-07T00:11:32.496Z,97545.50
2023-03-07T00:14:01.255Z,97535.78
2023-03-07T00:16:30.018Z,97539.88
2023-03-07T00:18:59.018Z,97540.19
2023-03-07T00:21:31.382Z,97536.97
2023-03-07T00:24:01.495Z,97537.81
2023-03-07T00:26:30.552Z,97532.31
2023-03-07T00:28:59.312Z,97536.88
2023-03-07T00:31:28.058Z,97525.22
2023-03-07T00:33:56.787Z,97525.44
2023-03-07T00:36:25.942Z,97518.09
2023-03-07T00:38:55.602Z,97521.84
2023-03-07T00:41:28.546Z,97519.59
2023-03-07T00:43:57.800Z,97512.31
2023-03-07T00:46:27.978Z,97506.84
2023-03-07T00:48:57.015Z,97508.28
2023-03-07T00:51:26.179Z,97501.97
2023-03-07T00:53:55.311Z,97497.94
2023-03-07T01:01:26.776Z,97484.13
2023-03-07T01:03:56.310Z,97483.69
2023-03-07T01:06:27.978Z,97486.66
2023-03-07T01:09:01.699Z,97479.97
2023-03-07T01:11:33.002Z,97479.16
2023-03-07T01:14:05.187Z,97466.06
2023-03-07T01:16:39.585Z,97462.59
2023-03-07T01:19:12.632Z,97459.56
2023-03-07T01:21:44.334Z,97463.97
2023-03-07T01:24:16.194Z,97458.22
2023-03-07T01:26:45.192Z,97455.59
2023-03-07T01:29:14.063Z,97450.53
2023-03-07T01:31:44.214Z,97446.50
2023-03-07T01:34:12.919Z,97447.91
2023-03-07T01:36:42.876Z,97445.63
2023-03-07T01:39:16.897Z,97432.00
2023-03-07T01:41:53.308Z,97435.06
2023-03-07T01:44:27.430Z,97426.94
2023-03-07T01:47:00.191Z,97418.78
2023-03-07T01:49:42.195Z,97419.22
2023-03-07T01:52:16.078Z,97410.28
2023-03-07T01:54:53.880Z,97404.63
2023-03-07T01:57:30.231Z,97400.66
2023-03-07T02:00:07.044Z,97399.41
2023-03-07T02:02:46.498Z,97391.94
2023-03-07T02:05:27.192Z,97396.19
2023-03-07T02:08:02.221Z,97383.78
2023-03-07T02:10:35.131Z,97383.19
2023-03-07T02:13:04.883Z,97389.34
2023-03-07T02:15:35.622Z,97387.31
2023-03-07T02:18:06.900Z,97381.28
2023-03-07T02:20:46.633Z,97388.53
2023-03-07T02:23:24.931Z,97376.97
2023-03-07T02:26:03.248Z,97372.69
2023-03-07T02:28:35.108Z,97372.81
2023-03-07T02:31:09.274Z,97360.34
2023-03-07T02:33:40.037Z,97354.13
2023-03-07T02:36:29.445Z,97359.47
2023-03-07T02:39:18.192Z,97351.78
2023-03-07T02:41:47.181Z,97353.22
2023-03-07T02:44:26.102Z,97347.00
2023-03-07T02:46:54.791Z,97345.25
2023-03-07T02:49:27.160Z,97342.53
2023-03-07T02:52:00.521Z,97342.59
2023-03-07T02:54:30.262Z,97344.94
2023-03-07T02:56:59.949Z,97337.63
2023-03-07T02:59:30.173Z,97331.69
2023-03-07T03:01:59.490Z,97330.66
2023-03-07T03:04:28.271Z,97325.03
2023-03-07T03:06:57.040Z,97312.47
2023-03-07T03:09:26.074Z,97304.91
2023-03-07T03:11:54.873Z,97309.47
2023-03-07T03:14:26.807Z,97309.31
2023-03-07T03:16:57.038Z,97299.13
2023-03-07T03:19:25.902Z,97302.41
2023-03-07T03:21:54.605Z,97302.81
2023-03-07T03:24:23.444Z,97296.72
2023-03-07T03:26:52.559Z,97292.66
2023-03-07T03:29:23.329Z,97283.94
2023-03-07T03:31:52.598Z,97286.16
2023-03-07T03:34:23.383Z,97281.69
2023-03-07T03:36:53.617Z,97279.28
2023-03-07T03:39:23.197Z,97274.88
2023-03-07T03:41:57.259Z,97280.69
2023-03-07T03:44:26.286Z,97275.28
2023-03-07T03:46:55.891Z,97266.50
2023-03-07T03:49:27.508Z,97263.56
2023-03-07T03:51:57.224Z,97258.66
2023-03-07T03:54:26.544Z,97257.69
2023-03-07T03:56:55.807Z,97255.81
2023-03-07T03:59:25.599Z,97246.50
2023-03-07T04:01:55.529Z,97241.59
2023-03-07T04:04:26.639Z,97242.19
2023-03-07T04:06:55.465Z,97236.91
2023-03-07T04:09:24.153Z,97230.38
2023-03-07T04:11:52.973Z,97235.56
2023-03-07T04:14:22.278Z,97229.06
2023-03-07T04:16:51.629Z,97224.28
2023-03-07T04:19:22.031Z,97221.50
2023-03-07T04:21:52.794Z,97220.19
2023-03-07T04:24:22.438Z,97214.53
2023-03-07T04:26:51.317Z,97211.25
2023-03-07T04:29:20.479Z,97201.94
2023-03-07T04:32:05.286Z,97198.50
2023-03-07T04:34:34.014Z,97193.38
2023-03-07T04:37:04.222Z,97185.59
2023-03-07T04:39:32.930Z,97186.78
2023-03-07T04:42:02.436Z,97180.72
2023-03-07T04:44:36.684Z,97165.69
2023-03-07T04:47:05.713Z,97171.75
2023-03-07T04:49:37.648Z,97162.00
2023-03-07T04:52:10.707Z,97168.75
2023-03-07T04:54:41.019Z,97167.06
2023-03-07T04:57:10.787Z,97161.34
2023-03-07T04:59:40.183Z,97155.13
2023-03-07T05:02:14.054Z,97153.06
2023-03-07T05:04:44.181Z,97147.00
2023-03-07T05:07:17.023Z,97144.72
2023-03-07T05:09:46.089Z,97148.38
2023-03-07T05:12:15.183Z,97146.53
2023-03-07T05:14:44.266Z,97149.78
2023-03-07T05:17:13.375Z,97149.63
2023-03-07T05:19:42.325Z,97146.75
2023-03-07T05:22:13.455Z,97139.66
2023-03-07T05:24:44.939Z,97137.97
2023-03-07T05:27:14.259Z,97139.13
2023-03-07T05:29:44.099Z,97134.19
2023-03-07T05:32:15.003Z,97130.75
2023-03-07T05:34:45.239Z,97137.66
2023-03-07T05:37:16.664Z,97133.53
2023-03-07T05:39:46.852Z,97126.41
2023-03-07T05:42:15.705Z,97125.19
2023-03-07T05:44:45.569Z,97118.06
2023-03-07T05:47:14.664Z,97119.78
2023-03-07T05:49:44.277Z,97120.25
2023-03-07T05:52:18.263Z,97114.88
2023-03-07T05:54:49.536Z,97123.25
2023-03-07T05:57:21.835Z,97122.09
2023-03-07T05:59:50.780Z,97124.72
2023-03-07T06:02:20.080Z,97107.66
2023-03-07T06:04:49.071Z,97115.25
2023-03-07T06:07:27.744Z,97109.88
2023-03-07T06:09:56.478Z,97112.06
2023-03-07T06:12:25.311Z,97116.31
2023-03-07T06:14:54.028Z,97119.91
2023-03-07T06:17:22.787Z,97125.28
2023-03-07T06:19:52.304Z,97124.00
2023-03-07T06:22:21.667Z,97119.75
2023-03-07T06:24:51.957Z,97116.00
2023-03-07T06:27:20.672Z,97113.22
2023-03-07T06:29:49.533Z,97129.75
2023-03-07T06:32:18.447Z,97120.50
2023-03-07T06:34:47.212Z,97121.56
2023-03-07T06:37:16.090Z,97126.59
2023-03-07T06:39:45.104Z,97120.28
2023-03-07T06:42:15.389Z,97125.34
2023-03-07T06:44:44.202Z,97130.84
2023-03-07T06:47:13.362Z,97125.22
2023-03-07T06:49:42.092Z,97116.72
2023-03-07T06:52:11.094Z,97123.59
2023-03-07T06:54:39.804Z,97125.13
2023-03-07T06:57:09.099Z,97121.22
2023-03-07T06:59:40.128Z,97119.84
2023-03-07T07:02:14.646Z,97118.59
2023-03-07T07:04:43.636Z,97125.38
2023-03-07T07:07:12.666Z,97122.84
2023-03-07T07:09:41.639Z,97128.03
2023-03-07T07:12:10.669Z,97120.91
2023-03-07T07:14:40.874Z,97123.53
2023-03-07T07:17:09.634Z,97118.72
2023-03-07T07:19:38.389Z,97112.84
2023-03-07T07:22:08.712Z,97111.34
2023-03-07T07:27:14.864Z,97118.13
2023-03-07T07:29:43.395Z,97107.22
2023-03-07T07:32:11.471Z,97114.09
2023-03-07T07:34:39.264Z,97120.44
2023-03-07T07:37:08.818Z,97116.28
2023-03-07T07:39:37.638Z,97120.53
2023-03-07T07:42:06.695Z,97121.44
2023-03-07T07:44:49.076Z,97118.69
2023-03-07T07:47:17.926Z,97117.53
2023-03-07T07:49:46.713Z,97115.34
2023-03-07T07:52:16.217Z,97118.91
2023-03-07T07:54:44.916Z,97121.22
2023-03-07T07:57:13.645Z,97117.06
2023-03-07T07:59:44.369Z,97124.16
2023-03-07T08:02:15.658Z,97127.38
2023-03-07T08:04:46.126Z,97114.38
2023-03-07T08:07:15.340Z,97112.34
2023-03-07T08:09:44.094Z,97110.34
2023-03-07T08:12:13.746Z,97123.91
2023-03-07T08:14:42.460Z,97112.84
2023-03-07T08:17:11.169Z,97112.84
2023-03-07T08:19:41.368Z,97108.25
2023-03-07T08:22:10.062Z,97098.19
2023-03-07T08:24:40.785Z,97102.44
2023-03-07T08:27:09.693Z,97099.44
2023-03-07T08:29:38.530Z,97099.94
2023-03-07T08:32:09.125Z,97087.63
2023-03-07T08:34:38.603Z,97083.59
2023-03-07T08:37:08.695Z,97095.97
2023-03-07T08:39:37.623Z,97093.19
2023-03-07T08:42:07.003Z,97089.66
2023-03-07T08:47:26.787Z,97083.97
2023-03-07T08:49:54.304Z,97089.28
2023-03-07T08:52:21.964Z,97090.56
2023-03-07T08:54:50.673Z,97088.44
2023-03-07T08:57:19.421Z,97089.84
2023-03-07T08:59:48.142Z,97094.16
2023-03-07T09:02:16.859Z,97080.03
2023-03-07T09:04:47.051Z,97094.31
2023-03-07T09:07:15.758Z,97087.97
2023-03-07T09:09:44.588Z,97090.53
2023-03-07T09:12:14.843Z,97093.25
2023-03-07T09:14:43.772Z,97090.03
2023-03-07T09:17:12.474Z,97078.97
2023-03-07T09:19:42.485Z,97088.28
2023-03-07T09:22:12.577Z,97089.69
2023-03-07T09:24:41.269Z,97071.53
2023-03-07T09:27:11.499Z,97076.03
2023-03-07T09:29:40.162Z,97073.13
2023-03-07T09:32:09.541Z,97074.06
2023-03-07T09:34:38.313Z,97061.28
2023-03-07T09:37:07.032Z,97067.03
2023-03-07T09:39:37.248Z,97063.13
2023-03-07T09:42:22.533Z,97048.00
2023-03-07T09:45:17.385Z,97047.53
2023-03-07T09:48:38.310Z,97052.94
2023-03-07T09:51:19.648Z,97044.94
2023-03-07T09:53:54.355Z,97049.69
2023-03-07T09:56:33.941Z,97044.56
2023-03-07T09:59:21.969Z,97042.53
2023-03-07T10:02:05.401Z,97037.88
2023-03-07T10:04:44.583Z,97042.13
2023-03-07T10:07:18.393Z,97031.59
2023-03-07T10:09:48.286Z,97040.09
2023-03-07T10:12:52.804Z,97034.53
2023-03-07T10:15:45.594Z,97039.69
2023-03-07T10:18:35.442Z,97020.06
2023-03-07T10:21:19.730Z,97025.41
2023-03-07T10:24:37.791Z,97034.34
2023-03-07T10:27:10.081Z,97024.91
2023-03-07T10:29:49.018Z,97024.16
2023-03-07T10:32:33.636Z,97010.47
2023-03-07T10:35:16.909Z,97020.06
2023-03-07T10:37:51.554Z,97026.47
2023-03-07T10:40:27.721Z,97011.63
2023-03-07T10:42:59.530Z,97007.41
2023-03-07T10:45:33.216Z,97010.63
2023-03-07T10:48:08.143Z,97011.19
2023-03-07T10:50:46.180Z,97014.94
2023-03-07T10:53:27.608Z,97010.81
2023-03-07T10:56:13.483Z,96992.78
2023-03-07T10:59:01.561Z,96984.59
2023-03-07T11:01:32.884Z,96982.25
2023-03-07T11:04:05.101Z,96978.25
2023-03-07T11:06:39.188Z,96988.66
2023-03-07T11:09:19.002Z,96983.59
2023-03-07T11:11:56.749Z,96973.22
2023-03-07T11:14:27.028Z,96977.50
2023-03-07T11:17:00.425Z,96959.91
2023-03-07T11:19:39.224Z,96963.63
2023-03-07T11:22:28.772Z,96957.56
2023-03-07T11:25:02.713Z,96964.72
2023-03-07T11:27:48.588Z,96964.69
2023-03-07T11:30:26.360Z,96953.53
2023-03-07T11:33:08.802Z,96954.59
2023-03-07T11:35:58.559Z,96960.97
2023-03-07T11:38:46.976Z,96955.06
2023-03-07T11:41:27.366Z,96962.47
2023-03-07T11:44:17.959Z,96947.28
2023-03-07T11:47:29.938Z,96968.72
2023-03-07T11:50:22.966Z,96956.75
2023-03-07T11:53:27.428Z,96944.22
2023-03-07T11:56:24.677Z,96941.28
2023-03-07T11:59:30.472Z,96950.06
2023-03-07T12:02:02.773Z,96948.00
2023-03-07T12:05:16.644Z,96943.47
2023-03-07T12:08:30.702Z,96936.09
2023-03-07T12:11:16.001Z,96942.22
2023-03-07T12:14:01.472Z,96927.53
2023-03-07T12:16:47.707Z,96927.78
2023-03-07T12:19:54.643Z,96927.28
2023-03-07T12:22:32.240Z,96926.25
2023-03-07T12:25:25.398Z,96926.28
2023-03-07T12:28:08.141Z,96918.84
2023-03-07T12:30:52.976Z,96923.31
2023-03-07T12:33:37.302Z,96914.03
2023-03-07T12:36:11.006Z,96918.59
2023-03-07T12:38:52.497Z,96911.16
2023-03-07T12:41:41.087Z,96920.97
2023-03-07T12:44:22.086Z,96917.25
2023-03-07T12:46:59.819Z,96917.28
2023-03-07T12:49:49.699Z,96898.13
2023-03-07T12:52:33.107Z,96906.91
2023-03-07T12:55:17.689Z,96909.84
2023-03-07T12:57:56.969Z,96892.28
2023-03-07T13:00:27.272Z,96897.09
2023-03-07T13:03:04.385Z,96894.94
2023-03-07T13:05:38.294Z,96908.00
2023-03-07T13:08:09.301Z,96898.69
2023-03-07T13:10:39.487Z,96901.38
2023-03-07T13:13:53.262Z,96901.09
2023-03-07T13:16:44.717Z,96890.19
2023-03-07T13:19:54.076Z,96891.78
2023-03-07T13:23:12.974Z,96877.66
2023-03-07T13:25:57.153Z,96880.84
2023-03-07T13:28:51.452Z,96896.03
2023-03-07T13:31:44.874Z,96895.50
2023-03-07T13:34:51.505Z,96890.16
2023-03-07T13:37:56.802Z,96880.56
2023-03-07T13:40:54.512Z,96888.59
2023-03-07T13:44:05.036Z,96878.97
2023-03-07T13:46:49.008Z,96879.53
2023-03-07T13:49:50.822Z,96865.13
2023-03-07T13:52:46.008Z,96867.78
2023-03-07T13:55:34.780Z,96878.72
2023-03-07T13:58:20.985Z,96872.84
2023-03-07T14:00:57.391Z,96881.63
2023-03-07T14:03:33.151Z,96877.66
2023-03-07T14:06:10.688Z,96872.00
2023-03-07T14:08:40.486Z,96867.25
2023-03-07T14:11:24.002Z,96879.78
2023-03-07T14:14:20.604Z,96878.44
2023-03-07T14:17:08.393Z,96878.44
2023-03-07T14:19:56.010Z,96880.06
2023-03-07T14:22:46.224Z,96881.13
2023-03-07T14:25:40.061Z,96891.78
2023-03-07T14:28:23.282Z,96889.63
2023-03-07T14:30:59.355Z,96889.88
2023-03-07T14:33:36.782Z,96878.69
2023-03-07T14:36:19.141Z,96887.47
2023-03-07T14:38:49.864Z,96878.41
2023-03-07T14:41:46.934Z,96881.09
2023-03-07T14:44:49.260Z,96881.88
2023-03-07T14:47:44.006Z,96880.00
2023-03-07T14:50:18.911Z,96877.88
2023-03-07T14:52:50.278Z,96874.69
2023-03-07T15:32:07.226Z,96860.81
2023-03-07T15:34:40.081Z,96858.97
2023-03-07T15:37:23.390Z,96870.94
2023-03-07T15:40:01.487Z,96862.38
2023-03-07T15:42:31.385Z,96857.09
2023-03-07T15:45:18.161Z,96863.72
2023-03-07T15:47:48.625Z,96857.09
2023-03-07T15:50:27.054Z,96868.78
2023-03-07T15:53:03.565Z,96861.34
2023-03-07T15:55:32.596Z,96860.78
2023-03-07T15:58:04.498Z,96866.38
2023-03-07T16:00:36.716Z,96855.69
2023-03-07T16:03:35.568Z,96866.63
2023-03-07T16:06:04.830Z,96865.03
2023-03-07T16:08:33.740Z,96870.88
2023-03-07T16:11:06.785Z,96850.69
2023-03-07T16:13:43.539Z,96856.25
2023-03-07T16:16:23.353Z,96861.59
2023-03-07T16:18:57.449Z,96857.09
2023-03-07T16:21:27.468Z,96865.56
2023-03-07T16:23:56.465Z,96852.78
2023-03-07T16:26:26.451Z,96856.28
2023-03-07T16:28:56.167Z,96858.63
2023-03-07T16:31:24.921Z,96852.78
2023-03-07T16:33:56.002Z,96853.31
2023-03-07T16:36:24.893Z,96859.69
2023-03-07T16:38:53.767Z,96858.91
2023-03-07T16:41:24.221Z,96861.31
2023-03-07T16:43:56.213Z,96864.50
2023-03-07T16:46:26.696Z,96874.09
2023-03-07T16:48:57.359Z,96873.53
2023-03-07T16:51:28.283Z,96870.84
2023-03-07T16:53:59.838Z,96877.22
2023-03-07T16:56:33.965Z,96878.25
2023-03-07T16:59:03.532Z,96883.84
2023-03-07T17:01:32.435Z,96883.56
2023-03-07T17:04:04.960Z,96898.13
2023-03-07T17:06:39.401Z,96900.78
2023-03-07T17:09:14.690Z,96905.88
2023-03-07T17:11:49.412Z,96910.66
2023-03-07T17:14:21.089Z,96899.22
2023-03-07T17:16:55.059Z,96907.44
2023-03-07T17:19:59.374Z,96915.88
2023-03-07T17:22:33.695Z,96926.25
2023-03-07T17:25:05.257Z,96929.44
2023-03-07T17:27:36.590Z,96940.88
2023-03-07T17:39:29.537Z,96988.84
2023-03-07T17:41:59.185Z,96993.03
2023-03-07T17:44:32.148Z,97006.94
2023-03-07T17:47:01.425Z,97002.63
2023-03-07T17:50:10.361Z,97018.63
2023-03-07T17:52:43.636Z,97012.06
2023-03-07T17:55:17.337Z,97022.59
2023-03-07T17:57:49.065Z,97028.28
2023-03-07T18:00:21.258Z,97032.31
2023-03-07T18:02:50.598Z,97026.91
2023-03-07T18:05:20.388Z,97028.78
2023-03-07T18:07:51.570Z,97028.06
2023-03-07T18:10:23.075Z,97028.16
2023-03-07T18:12:53.925Z,97031.78
2023-03-07T18:15:24.567Z,97036.25
2023-03-07T18:17:53.652Z,97039.66
2023-03-07T18:20:22.976Z,97040.28
2023-03-07T18:22:51.665Z,97041.31
2023-03-07T18:25:26.660Z,97041.31
2023-03-07T18:27:56.690Z,97048.94
2023-03-07T18:30:27.596Z,97045.81
2023-03-07T18:32:59.207Z,97036.41
2023-03-07T18:35:31.931Z,97046.28
2023-03-07T18:38:00.820Z,97040.91
2023-03-07T18:40:32.061Z,97052.16
2023-03-07T18:43:01.844Z,97052.56
2023-03-07T18:45:30.770Z,97054.41
2023-03-07T18:48:06.013Z,97056.66
2023-03-07T18:50:34.757Z,97059.88
2023-03-07T18:53:05.025Z,97048.16
2023-03-07T18:55:40.216Z,97050.31
2023-03-07T18:58:10.020Z,97037.63
2023-03-07T19:00:39.858Z,97042.50
2023-03-07T19:03:08.663Z,97042.59
2023-03-07T19:05:44.122Z,97043.72
2023-03-07T19:08:13.370Z,97047.72
2023-03-07T19:10:45.150Z,97045.88
2023-03-07T19:13:15.883Z,97049.09
2023-03-07T19:15:44.991Z,97043.78
2023-03-07T19:18:13.780Z,97038.50
2023-03-07T19:20:42.938Z,97039.03
2023-03-07T19:23:11.598Z,97049.09
2023-03-07T19:25:42.718Z,97052.28
2023-03-07T19:28:11.518Z,97044.25
2023-03-07T19:30:41.332Z,97051.09
2023-03-07T19:33:11.320Z,97053.25
2023-03-07T19:35:42.820Z,97047.50
2023-03-07T19:38:14.859Z,97053.81
2023-03-07T19:41:00.909Z,97056.72
2023-03-07T19:43:34.639Z,97062.44
2023-03-07T19:46:19.204Z,97053.19
2023-03-07T19:48:51.700Z,97048.88
2023-03-07T19:51:27.046Z,97045.41
2023-03-07T19:53:57.625Z,97055.38
2023-03-07T19:56:35.933Z,97050.66
2023-03-07T19:59:19.932Z,97053.94
2023-03-07T20:01:52.666Z,97054.25
2023-03-07T20:04:21.804Z,97052.41
2023-03-07T20:06:50.730Z,97048.97
2023-03-07T20:09:23.581Z,97043.00
2023-03-07T20:11:59.515Z,97053.69
2023-03-07T20:14:32.552Z,97046.53
2023-03-07T20:17:01.656Z,97052.31
2023-03-07T20:19:30.874Z,97065.16
2023-03-07T20:22:10.456Z,97062.13
2023-03-07T20:24:45.627Z,97059.69
2023-03-07T20:27:24.793Z,97060.50
2023-03-07T20:29:57.756Z,97072.97
2023-03-07T20:32:35.953Z,97067.25
2023-03-07T20:35:09.059Z,97072.13
2023-03-07T20:37:38.136Z,97072.00
2023-03-07T20:40:17.065Z,97076.25
2023-03-07T20:42:57.237Z,97079.06
2023-03-07T20:45:31.422Z,97072.41
2023-03-07T20:48:03.603Z,97073.53
2023-03-07T20:50:40.098Z,97076.50
2023-03-07T20:53:30.943Z,97086.78
2023-03-07T20:56:07.397Z,97083.88
2023-03-07T20:58:44.141Z,97074.88
2023-03-07T21:01:13.950Z,97079.94
2023-03-07T21:03:42.886Z,97083.38
2023-03-07T21:06:11.790Z,97088.69
2023-03-07T21:08:40.689Z,97085.56
2023-03-07T21:11:12.072Z,97089.81
2023-03-07T21:13:45.831Z,97086.03
2023-03-07T21:16:17.494Z,97089.75
2023-03-07T21:18:47.055Z,97100.34
2023-03-07T21:21:19.013Z,97106.84
2023-03-07T21:23:48.557Z,97106.75
2023-03-07T21:26:20.045Z,97106.44
2023-03-07T21:28:51.663Z,97102.88
2023-03-07T21:31:23.229Z,97108.50
2023-03-07T21:33:55.816Z,97113.34
2023-03-07T21:36:27.136Z,97109.63
2023-03-07T21:38:57.231Z,97112.28
2023-03-07T21:41:26.149Z,97117.50
2023-03-07T21:43:57.992Z,97125.44
2023-03-07T21:46:27.460Z,97109.53
2023-03-07T21:48:59.013Z,97119.09
2023-03-07T21:51:27.687Z,97130.50
2023-03-07T21:53:56.339Z,97125.19
2023-03-07T21:56:25.258Z,97127.03
2023-03-07T21:58:55.607Z,97141.09
2023-03-07T22:01:27.778Z,97140.28
2023-03-07T22:03:59.294Z,97142.13
2023-03-07T22:06:29.413Z,97146.63
2023-03-07T22:08:59.744Z,97154.56
2023-03-07T22:11:28.972Z,97159.88
2023-03-07T22:13:58.988Z,97158.25
2023-03-07T22:16:27.789Z,97155.06
2023-03-07T22:18:57.358Z,97164.03
2023-03-07T22:21:26.910Z,97166.13
2023-03-07T22:23:58.165Z,97154.47
2023-03-07T22:26:28.217Z,97145.78
2023-03-07T22:28:59.111Z,97153.25
2023-03-07T22:31:28.058Z,97158.56
2023-03-07T22:33:58.882Z,97165.59
2023-03-07T22:36:27.660Z,97168.19
2023-03-07T22:38:57.368Z,97169.34
2023-03-07T22:41:26.962Z,97171.97
2023-03-07T22:43:55.999Z,97179.09
2023-03-07T22:46:26.348Z,97190.03
2023-03-07T22:48:57.051Z,97188.97
2023-03-07T22:51:27.727Z,97180.81
2023-03-07T22:53:56.883Z,97184.81
2023-03-07T22:56:28.322Z,97185.97
2023-03-07T22:58:57.510Z,97178.84
2023-03-07T23:01:29.834Z,97181.41
2023-03-07T23:04:01.049Z,97180.81
2023-03-07T23:06:32.771Z,97181.63
2023-03-07T23:09:07.830Z,97179.44
2023-03-07T23:11:37.152Z,97188.31
2023-03-07T23:14:05.892Z,97185.66
2023-03-07T23:16:39.384Z,97191.50
2023-03-07T23:19:08.182Z,97186.34
2023-03-07T23:21:37.789Z,97186.03
2023-03-07T23:24:07.040Z,97193.50
2023-03-07T23:26:38.784Z,97191.75
2023-03-07T23:29:11.687Z,97200.03
2023-03-07T23:31:43.179Z,97218.59
2023-03-07T23:34:18.079Z,97219.13
2023-03-07T23:36:46.964Z,97219.50
2023-03-07T23:39:17.533Z,97215.44
2023-03-07T23:41:46.406Z,97215.69
2023-03-07T23:44:15.372Z,97223.63
2023-03-07T23:46:45.713Z,97222.59
2023-03-07T23:49:15.553Z,97225.25
2023-03-07T23:51:44.699Z,97228.13
2023-03-07T23:54:13.395Z,97228.94
2023-03-07T23:56:42.137Z,97237.56
2023-03-07T23:59:10.878Z,97240.81
